KPOE

Polk AAF Airport

Fort Polk, Louisiana, USA
METAR KPOE 231058Z AUTO 35003KT 6SM -RA SCT030 OVC110 13/09 A3016 RMK AO2 RAB40 SLP215 P0000 T01260092
Observed Flight Rules
Oct-23 @ 10:58 UTC (52 minutes ago) Visual Flight Rules
Wind Visibility Clouds Conditions
350° at 3 knots 6 miles
  • Scattered at 3,000' AGL
  • Overcast at 11,000' AGL
  • Light Rain
Temperatures Readings Precipitation
Current 13°C / 55°F
Dewpoint 9°C / 48°F
Humidity 77%
Altimeter 30.16" Hg
Pressure 1021.5 hPa
Elevation 101
Current Rain 0.005
METAR KPOE 231058Z AUTO 35003KT 6SM -RA SCT030 OVC110 13/09 A3016 RMK AO2 RAB40 SLP215 P0000 T01260092
Observed Flight Rules
Oct-23 @ 10:58 UTC
(52 minutes ago)
VFR
Wind Visibility
350° at 3 knots 6 miles
Clouds
  • Scattered at 3,000' AGL
  • Overcast at 11,000' AGL
Conditions
  • Light Rain
Temperature Dewpoint
13°C / 55°F 9°C / 48°F
Humidity Altimeter Pressure
77% 30.16" Hg 1021.5 hPa
Current Rain
0.005